Аэропорт: Михайловка. Барнаул

ICAO: UNBB

METAR:
2018/09/23 11:00
UNBB 231100Z 22005MPS 9999 FEW040CB 16/05 Q1012 R24/CLRD66 NOSIG RMK QFE736
METAR:
2018/09/23 09:24
TAF TAF UNBB 230800Z 2309/2409 21008G14MPS 9999 BKN020CB 
      TEMPO 2309/2409 3100 -SHRA SCT003 BKN011CB 
      BECMG 2313/2315 19003G08MPS 
      BECMG 2402/2404 25007G13MPS